sensor_id;sensor_type;location;lat;lon;timestamp;temperature;humidity
33574;DHT22;20085;50.832;4.392;2022-08-19T00:01:43;24.30;85.10
33574;DHT22;20085;50.832;4.392;2022-08-19T00:04:11;24.30;84.60
33574;DHT22;20085;50.832;4.392;2022-08-19T00:06:39;24.30;84.80
33574;DHT22;20085;50.832;4.392;2022-08-19T00:09:07;24.30;85.10
33574;DHT22;20085;50.832;4.392;2022-08-19T00:11:34;24.30;85.50
33574;DHT22;20085;50.832;4.392;2022-08-19T00:14:03;24.10;86.50
33574;DHT22;20085;50.832;4.392;2022-08-19T00:16:29;24.10;86.70
33574;DHT22;20085;50.832;4.392;2022-08-19T00:18:55;24.10;87.20
33574;DHT22;20085;50.832;4.392;2022-08-19T00:21:21;24.10;87.80
33574;DHT22;20085;50.832;4.392;2022-08-19T00:23:47;23.90;88.40
33574;DHT22;20085;50.832;4.392;2022-08-19T00:26:13;23.90;89.00
33574;DHT22;20085;50.832;4.392;2022-08-19T00:28:38;24.00;89.30
33574;DHT22;20085;50.832;4.392;2022-08-19T00:31:06;23.90;89.80
33574;DHT22;20085;50.832;4.392;2022-08-19T00:33:32;23.90;90.50
33574;DHT22;20085;50.832;4.392;2022-08-19T00:36:05;23.80;90.50
33574;DHT22;20085;50.832;4.392;2022-08-19T00:38:31;23.80;90.70
33574;DHT22;20085;50.832;4.392;2022-08-19T00:40:57;23.80;90.90
33574;DHT22;20085;50.832;4.392;2022-08-19T00:43:25;23.90;90.90
33574;DHT22;20085;50.832;4.392;2022-08-19T00:45:51;23.90;91.00
33574;DHT22;20085;50.832;4.392;2022-08-19T00:48:18;23.90;91.00
33574;DHT22;20085;50.832;4.392;2022-08-19T00:50:46;23.90;91.10
33574;DHT22;20085;50.832;4.392;2022-08-19T00:53:15;23.80;91.30
33574;DHT22;20085;50.832;4.392;2022-08-19T00:55:45;23.80;91.50
33574;DHT22;20085;50.832;4.392;2022-08-19T00:58:14;23.80;91.50
33574;DHT22;20085;50.832;4.392;2022-08-19T01:00:40;23.80;91.50
33574;DHT22;20085;50.832;4.392;2022-08-19T01:03:09;23.90;91.40
33574;DHT22;20085;50.832;4.392;2022-08-19T01:05:36;23.80;91.40
33574;DHT22;20085;50.832;4.392;2022-08-19T01:08:04;23.80;91.50
33574;DHT22;20085;50.832;4.392;2022-08-19T01:10:41;23.70;91.60
33574;DHT22;20085;50.832;4.392;2022-08-19T01:13:09;23.80;91.70
33574;DHT22;20085;50.832;4.392;2022-08-19T01:15:41;23.80;91.60
33574;DHT22;20085;50.832;4.392;2022-08-19T01:18:11;23.70;91.70
33574;DHT22;20085;50.832;4.392;2022-08-19T01:20:38;23.80;91.70
33574;DHT22;20085;50.832;4.392;2022-08-19T01:23:04;23.60;91.60
33574;DHT22;20085;50.832;4.392;2022-08-19T01:25:34;23.60;91.50
33574;DHT22;20085;50.832;4.392;2022-08-19T01:28:00;23.60;91.40
33574;DHT22;20085;50.832;4.392;2022-08-19T01:30:33;23.60;91.40
33574;DHT22;20085;50.832;4.392;2022-08-19T01:32:59;23.60;91.40
33574;DHT22;20085;50.832;4.392;2022-08-19T01:35:27;23.50;91.50
33574;DHT22;20085;50.832;4.392;2022-08-19T01:37:59;23.50;91.60
33574;DHT22;20085;50.832;4.392;2022-08-19T01:40:31;23.40;91.50
33574;DHT22;20085;50.832;4.392;2022-08-19T01:42:58;23.40;91.40
33574;DHT22;20085;50.832;4.392;2022-08-19T01:45:27;23.30;91.50
33574;DHT22;20085;50.832;4.392;2022-08-19T01:47:54;23.30;91.50
33574;DHT22;20085;50.832;4.392;2022-08-19T01:50:20;23.30;91.30
33574;DHT22;20085;50.832;4.392;2022-08-19T01:52:46;23.20;91.20
33574;DHT22;20085;50.832;4.392;2022-08-19T01:55:15;23.20;91.10
33574;DHT22;20085;50.832;4.392;2022-08-19T01:57:44;23.20;91.30
33574;DHT22;20085;50.832;4.392;2022-08-19T02:00:15;23.20;90.60
33574;DHT22;20085;50.832;4.392;2022-08-19T02:02:42;23.20;90.60
33574;DHT22;20085;50.832;4.392;2022-08-19T02:05:08;23.20;90.70
33574;DHT22;20085;50.832;4.392;2022-08-19T02:07:35;23.20;90.90
33574;DHT22;20085;50.832;4.392;2022-08-19T02:10:06;23.10;90.90
33574;DHT22;20085;50.832;4.392;2022-08-19T02:12:32;23.10;90.90
33574;DHT22;20085;50.832;4.392;2022-08-19T02:14:59;23.20;90.70
33574;DHT22;20085;50.832;4.392;2022-08-19T02:17:25;23.10;90.10
33574;DHT22;20085;50.832;4.392;2022-08-19T02:19:50;23.10;90.00
33574;DHT22;20085;50.832;4.392;2022-08-19T02:22:16;23.10;90.00
33574;DHT22;20085;50.832;4.392;2022-08-19T02:24:41;23.00;89.50
33574;DHT22;20085;50.832;4.392;2022-08-19T02:27:07;23.00;89.90
33574;DHT22;20085;50.832;4.392;2022-08-19T02:29:33;23.00;90.30
33574;DHT22;20085;50.832;4.392;2022-08-19T02:31:58;23.00;90.60
33574;DHT22;20085;50.832;4.392;2022-08-19T02:34:24;22.90;90.80
33574;DHT22;20085;50.832;4.392;2022-08-19T02:36:51;22.80;91.00
33574;DHT22;20085;50.832;4.392;2022-08-19T02:39:17;22.80;91.00
33574;DHT22;20085;50.832;4.392;2022-08-19T02:41:42;22.80;90.90
33574;DHT22;20085;50.832;4.392;2022-08-19T02:44:08;22.80;91.10
33574;DHT22;20085;50.832;4.392;2022-08-19T02:46:34;22.80;91.10
33574;DHT22;20085;50.832;4.392;2022-08-19T02:49:04;22.80;90.60
33574;DHT22;20085;50.832;4.392;2022-08-19T02:51:36;22.70;90.60
33574;DHT22;20085;50.832;4.392;2022-08-19T02:54:03;22.70;90.60
33574;DHT22;20085;50.832;4.392;2022-08-19T02:56:30;22.70;90.60
33574;DHT22;20085;50.832;4.392;2022-08-19T02:58:57;22.70;90.60
33574;DHT22;20085;50.832;4.392;2022-08-19T03:01:32;22.60;90.70
33574;DHT22;20085;50.832;4.392;2022-08-19T03:04:02;22.60;90.80
33574;DHT22;20085;50.832;4.392;2022-08-19T03:06:28;22.50;91.00
33574;DHT22;20085;50.832;4.392;2022-08-19T03:08:54;22.50;91.00
33574;DHT22;20085;50.832;4.392;2022-08-19T03:11:23;22.50;91.00
33574;DHT22;20085;50.832;4.392;2022-08-19T03:13:50;22.50;91.10
33574;DHT22;20085;50.832;4.392;2022-08-19T03:16:17;22.40;91.10
33574;DHT22;20085;50.832;4.392;2022-08-19T03:18:44;22.40;91.30
33574;DHT22;20085;50.832;4.392;2022-08-19T03:21:15;22.40;91.20
33574;DHT22;20085;50.832;4.392;2022-08-19T03:23:41;22.30;91.30
33574;DHT22;20085;50.832;4.392;2022-08-19T03:26:07;22.40;91.50
33574;DHT22;20085;50.832;4.392;2022-08-19T03:28:33;22.30;91.40
33574;DHT22;20085;50.832;4.392;2022-08-19T03:31:06;22.30;91.50
33574;DHT22;20085;50.832;4.392;2022-08-19T03:33:35;22.30;91.50
33574;DHT22;20085;50.832;4.392;2022-08-19T03:36:03;22.30;91.50
33574;DHT22;20085;50.832;4.392;2022-08-19T03:38:28;22.30;91.60
33574;DHT22;20085;50.832;4.392;2022-08-19T03:40:54;22.20;91.60
33574;DHT22;20085;50.832;4.392;2022-08-19T03:43:20;22.30;91.70
33574;DHT22;20085;50.832;4.392;2022-08-19T03:45:46;22.20;91.70
33574;DHT22;20085;50.832;4.392;2022-08-19T03:48:14;22.30;92.00
33574;DHT22;20085;50.832;4.392;2022-08-19T03:50:42;22.20;91.80
33574;DHT22;20085;50.832;4.392;2022-08-19T03:53:07;22.20;91.90
33574;DHT22;20085;50.832;4.392;2022-08-19T03:55:39;22.10;91.80
33574;DHT22;20085;50.832;4.392;2022-08-19T03:58:04;22.20;91.80
33574;DHT22;20085;50.832;4.392;2022-08-19T04:00:30;22.20;91.80
33574;DHT22;20085;50.832;4.392;2022-08-19T04:02:55;22.10;91.90
33574;DHT22;20085;50.832;4.392;2022-08-19T04:05:21;22.10;92.00
33574;DHT22;20085;50.832;4.392;2022-08-19T04:07:47;22.00;92.20
33574;DHT22;20085;50.832;4.392;2022-08-19T04:10:12;22.00;92.20
33574;DHT22;20085;50.832;4.392;2022-08-19T04:12:38;22.00;92.20
33574;DHT22;20085;50.832;4.392;2022-08-19T04:15:05;21.90;92.40
33574;DHT22;20085;50.832;4.392;2022-08-19T04:17:31;21.80;92.60
33574;DHT22;20085;50.832;4.392;2022-08-19T04:19:57;21.80;93.10
33574;DHT22;20085;50.832;4.392;2022-08-19T04:22:23;21.70;92.80
33574;DHT22;20085;50.832;4.392;2022-08-19T04:24:48;21.70;93.00
33574;DHT22;20085;50.832;4.392;2022-08-19T04:27:14;21.70;92.90
33574;DHT22;20085;50.832;4.392;2022-08-19T04:29:41;21.70;93.00
33574;DHT22;20085;50.832;4.392;2022-08-19T04:32:06;21.70;93.00
33574;DHT22;20085;50.832;4.392;2022-08-19T04:34:32;21.60;93.10
33574;DHT22;20085;50.832;4.392;2022-08-19T04:36:58;21.60;93.10
33574;DHT22;20085;50.832;4.392;2022-08-19T04:39:30;21.60;93.20
33574;DHT22;20085;50.832;4.392;2022-08-19T04:42:17;21.60;93.20
33574;DHT22;20085;50.832;4.392;2022-08-19T04:45:01;21.50;93.30
33574;DHT22;20085;50.832;4.392;2022-08-19T04:47:27;21.50;93.40
33574;DHT22;20085;50.832;4.392;2022-08-19T04:49:53;21.40;93.50
33574;DHT22;20085;50.832;4.392;2022-08-19T04:52:19;21.40;93.50
33574;DHT22;20085;50.832;4.392;2022-08-19T04:54:45;21.40;93.60
33574;DHT22;20085;50.832;4.392;2022-08-19T04:57:10;21.40;93.60
33574;DHT22;20085;50.832;4.392;2022-08-19T04:59:37;21.50;93.60
33574;DHT22;20085;50.832;4.392;2022-08-19T05:02:04;21.40;93.60
33574;DHT22;20085;50.832;4.392;2022-08-19T05:04:30;21.50;93.60
33574;DHT22;20085;50.832;4.392;2022-08-19T05:06:57;21.50;93.60
33574;DHT22;20085;50.832;4.392;2022-08-19T05:09:23;21.50;93.60
33574;DHT22;20085;50.832;4.392;2022-08-19T05:11:48;21.50;93.60
33574;DHT22;20085;50.832;4.392;2022-08-19T05:14:15;21.50;93.60
33574;DHT22;20085;50.832;4.392;2022-08-19T05:16:40;21.50;93.60
33574;DHT22;20085;50.832;4.392;2022-08-19T05:19:06;21.50;93.60
33574;DHT22;20085;50.832;4.392;2022-08-19T05:21:50;21.50;93.60
33574;DHT22;20085;50.832;4.392;2022-08-19T05:24:37;21.40;93.70
33574;DHT22;20085;50.832;4.392;2022-08-19T05:27:03;21.50;93.80
33574;DHT22;20085;50.832;4.392;2022-08-19T05:29:31;21.50;93.80
33574;DHT22;20085;50.832;4.392;2022-08-19T05:31:58;21.50;93.80
33574;DHT22;20085;50.832;4.392;2022-08-19T05:34:25;21.50;93.70
33574;DHT22;20085;50.832;4.392;2022-08-19T05:36:57;21.50;93.60
33574;DHT22;20085;50.832;4.392;2022-08-19T05:39:26;21.60;93.60
33574;DHT22;20085;50.832;4.392;2022-08-19T05:41:56;21.60;93.50
33574;DHT22;20085;50.832;4.392;2022-08-19T05:44:24;21.60;93.40
33574;DHT22;20085;50.832;4.392;2022-08-19T05:46:50;21.50;93.60
33574;DHT22;20085;50.832;4.392;2022-08-19T05:49:19;21.50;93.70
33574;DHT22;20085;50.832;4.392;2022-08-19T05:51:46;21.50;93.70
33574;DHT22;20085;50.832;4.392;2022-08-19T05:54:12;21.50;93.80
33574;DHT22;20085;50.832;4.392;2022-08-19T05:56:40;21.60;93.70
33574;DHT22;20085;50.832;4.392;2022-08-19T05:59:08;21.60;93.60
33574;DHT22;20085;50.832;4.392;2022-08-19T06:01:37;21.60;93.60
33574;DHT22;20085;50.832;4.392;2022-08-19T06:04:04;21.60;93.60
33574;DHT22;20085;50.832;4.392;2022-08-19T06:06:29;21.60;93.70
33574;DHT22;20085;50.832;4.392;2022-08-19T06:08:55;21.60;93.70
33574;DHT22;20085;50.832;4.392;2022-08-19T06:11:33;21.70;93.70
33574;DHT22;20085;50.832;4.392;2022-08-19T06:14:02;21.70;93.70
33574;DHT22;20085;50.832;4.392;2022-08-19T06:16:28;21.60;93.70
33574;DHT22;20085;50.832;4.392;2022-08-19T06:18:59;21.70;93.80
33574;DHT22;20085;50.832;4.392;2022-08-19T06:21:27;21.70;93.80
33574;DHT22;20085;50.832;4.392;2022-08-19T06:23:55;21.80;93.70
33574;DHT22;20085;50.832;4.392;2022-08-19T06:26:22;21.80;93.60
33574;DHT22;20085;50.832;4.392;2022-08-19T06:28:48;21.90;93.70
33574;DHT22;20085;50.832;4.392;2022-08-19T06:31:16;21.80;93.80
33574;DHT22;20085;50.832;4.392;2022-08-19T06:33:44;21.90;93.90
33574;DHT22;20085;50.832;4.392;2022-08-19T06:36:28;21.90;93.80
33574;DHT22;20085;50.832;4.392;2022-08-19T06:39:08;21.90;93.80
33574;DHT22;20085;50.832;4.392;2022-08-19T06:41:37;21.90;93.90
33574;DHT22;20085;50.832;4.392;2022-08-19T06:44:04;21.90;94.00
33574;DHT22;20085;50.832;4.392;2022-08-19T06:46:30;21.90;94.00
33574;DHT22;20085;50.832;4.392;2022-08-19T06:48:56;22.00;94.00
33574;DHT22;20085;50.832;4.392;2022-08-19T06:51:23;21.90;94.10
33574;DHT22;20085;50.832;4.392;2022-08-19T06:53:51;22.10;94.10
33574;DHT22;20085;50.832;4.392;2022-08-19T06:56:20;22.10;94.10
33574;DHT22;20085;50.832;4.392;2022-08-19T06:58:46;22.00;94.20
33574;DHT22;20085;50.832;4.392;2022-08-19T07:01:16;22.10;94.20
33574;DHT22;20085;50.832;4.392;2022-08-19T07:03:41;22.10;94.20
33574;DHT22;20085;50.832;4.392;2022-08-19T07:06:11;22.20;94.20
33574;DHT22;20085;50.832;4.392;2022-08-19T07:08:38;22.20;94.20
33574;DHT22;20085;50.832;4.392;2022-08-19T07:11:11;22.20;94.20
33574;DHT22;20085;50.832;4.392;2022-08-19T07:13:38;22.20;94.20
33574;DHT22;20085;50.832;4.392;2022-08-19T07:16:10;22.30;94.30
33574;DHT22;20085;50.832;4.392;2022-08-19T07:18:37;22.30;94.40
33574;DHT22;20085;50.832;4.392;2022-08-19T07:21:15;22.40;94.30
33574;DHT22;20085;50.832;4.392;2022-08-19T07:23:42;22.30;94.40
33574;DHT22;20085;50.832;4.392;2022-08-19T07:26:19;22.30;94.50
33574;DHT22;20085;50.832;4.392;2022-08-19T07:28:47;22.40;94.60
33574;DHT22;20085;50.832;4.392;2022-08-19T07:31:15;22.40;94.50
33574;DHT22;20085;50.832;4.392;2022-08-19T07:33:44;22.50;94.60
33574;DHT22;20085;50.832;4.392;2022-08-19T07:36:12;22.50;94.60
33574;DHT22;20085;50.832;4.392;2022-08-19T07:38:42;22.50;94.70
33574;DHT22;20085;50.832;4.392;2022-08-19T07:41:15;22.50;94.80
33574;DHT22;20085;50.832;4.392;2022-08-19T07:43:41;22.50;94.80
33574;DHT22;20085;50.832;4.392;2022-08-19T07:46:09;22.60;94.70
33574;DHT22;20085;50.832;4.392;2022-08-19T07:48:35;22.60;94.80
33574;DHT22;20085;50.832;4.392;2022-08-19T07:51:04;22.60;94.90
33574;DHT22;20085;50.832;4.392;2022-08-19T07:53:32;22.60;94.80
33574;DHT22;20085;50.832;4.392;2022-08-19T07:56:00;22.60;94.80
33574;DHT22;20085;50.832;4.392;2022-08-19T07:58:31;22.70;94.80
33574;DHT22;20085;50.832;4.392;2022-08-19T08:00:57;22.90;94.70
33574;DHT22;20085;50.832;4.392;2022-08-19T08:03:23;22.90;94.60
33574;DHT22;20085;50.832;4.392;2022-08-19T08:06:18;22.90;94.50
33574;DHT22;20085;50.832;4.392;2022-08-19T08:09:04;23.00;94.50
33574;DHT22;20085;50.832;4.392;2022-08-19T08:11:42;23.00;94.40
33574;DHT22;20085;50.832;4.392;2022-08-19T08:14:08;23.00;94.40
33574;DHT22;20085;50.832;4.392;2022-08-19T08:16:38;23.00;94.60
33574;DHT22;20085;50.832;4.392;2022-08-19T08:19:07;23.00;94.60
33574;DHT22;20085;50.832;4.392;2022-08-19T08:21:33;22.90;94.70
33574;DHT22;20085;50.832;4.392;2022-08-19T08:23:59;23.00;94.60
33574;DHT22;20085;50.832;4.392;2022-08-19T08:26:25;23.10;94.60
33574;DHT22;20085;50.832;4.392;2022-08-19T08:28:52;23.10;94.50
33574;DHT22;20085;50.832;4.392;2022-08-19T08:31:18;23.10;94.50
33574;DHT22;20085;50.832;4.392;2022-08-19T08:33:45;23.10;94.50
33574;DHT22;20085;50.832;4.392;2022-08-19T08:36:12;23.10;94.50
33574;DHT22;20085;50.832;4.392;2022-08-19T08:38:42;23.10;94.50
33574;DHT22;20085;50.832;4.392;2022-08-19T08:41:51;23.20;94.50
33574;DHT22;20085;50.832;4.392;2022-08-19T08:44:15;23.30;94.40
33574;DHT22;20085;50.832;4.392;2022-08-19T08:46:51;23.30;94.40
33574;DHT22;20085;50.832;4.392;2022-08-19T08:49:34;23.30;94.50
33574;DHT22;20085;50.832;4.392;2022-08-19T08:52:06;23.30;94.50
33574;DHT22;20085;50.832;4.392;2022-08-19T08:54:39;23.30;94.40
33574;DHT22;20085;50.832;4.392;2022-08-19T08:57:14;23.30;94.40
33574;DHT22;20085;50.832;4.392;2022-08-19T08:59:41;23.40;94.50
33574;DHT22;20085;50.832;4.392;2022-08-19T09:02:09;23.30;94.50
33574;DHT22;20085;50.832;4.392;2022-08-19T09:04:36;23.40;94.50
33574;DHT22;20085;50.832;4.392;2022-08-19T09:07:28;23.40;94.60
33574;DHT22;20085;50.832;4.392;2022-08-19T09:15:31;23.40;94.70
33574;DHT22;20085;50.832;4.392;2022-08-19T09:18:01;23.40;94.60
33574;DHT22;20085;50.832;4.392;2022-08-19T09:20:27;23.50;94.60
33574;DHT22;20085;50.832;4.392;2022-08-19T09:22:53;23.50;94.60
33574;DHT22;20085;50.832;4.392;2022-08-19T09:25:20;23.50;94.70
33574;DHT22;20085;50.832;4.392;2022-08-19T09:27:50;23.60;94.60
33574;DHT22;20085;50.832;4.392;2022-08-19T09:30:25;23.70;94.50
33574;DHT22;20085;50.832;4.392;2022-08-19T09:32:52;23.70;94.50
33574;DHT22;20085;50.832;4.392;2022-08-19T09:35:18;23.70;94.40
33574;DHT22;20085;50.832;4.392;2022-08-19T09:37:44;23.80;94.40
33574;DHT22;20085;50.832;4.392;2022-08-19T09:40:11;23.70;94.30
33574;DHT22;20085;50.832;4.392;2022-08-19T09:42:37;23.80;94.30
33574;DHT22;20085;50.832;4.392;2022-08-19T09:45:03;23.80;94.20
33574;DHT22;20085;50.832;4.392;2022-08-19T09:47:29;23.90;94.20
33574;DHT22;20085;50.832;4.392;2022-08-19T09:49:55;23.80;94.50
33574;DHT22;20085;50.832;4.392;2022-08-19T09:52:21;23.80;94.30
33574;DHT22;20085;50.832;4.392;2022-08-19T09:54:47;23.80;94.40
33574;DHT22;20085;50.832;4.392;2022-08-19T09:57:12;23.80;94.30
33574;DHT22;20085;50.832;4.392;2022-08-19T09:59:39;23.80;94.40
33574;DHT22;20085;50.832;4.392;2022-08-19T10:02:05;23.70;94.40
33574;DHT22;20085;50.832;4.392;2022-08-19T10:04:31;23.70;94.50
33574;DHT22;20085;50.832;4.392;2022-08-19T10:07:15;23.80;94.50
33574;DHT22;20085;50.832;4.392;2022-08-19T10:09:41;23.80;94.50
33574;DHT22;20085;50.832;4.392;2022-08-19T10:12:07;23.80;94.40
33574;DHT22;20085;50.832;4.392;2022-08-19T10:14:33;23.90;94.40
33574;DHT22;20085;50.832;4.392;2022-08-19T10:16:59;24.00;94.30
33574;DHT22;20085;50.832;4.392;2022-08-19T10:19:28;24.00;94.10
33574;DHT22;20085;50.832;4.392;2022-08-19T10:21:57;24.00;94.10
33574;DHT22;20085;50.832;4.392;2022-08-19T10:24:23;24.10;94.00
33574;DHT22;20085;50.832;4.392;2022-08-19T10:26:51;24.10;94.10
33574;DHT22;20085;50.832;4.392;2022-08-19T10:29:17;24.10;94.00
33574;DHT22;20085;50.832;4.392;2022-08-19T10:31:42;24.10;94.00
33574;DHT22;20085;50.832;4.392;2022-08-19T10:34:08;24.10;94.00
33574;DHT22;20085;50.832;4.392;2022-08-19T10:36:36;24.10;94.00
33574;DHT22;20085;50.832;4.392;2022-08-19T10:39:07;24.10;94.10
33574;DHT22;20085;50.832;4.392;2022-08-19T10:41:37;24.10;94.20
33574;DHT22;20085;50.832;4.392;2022-08-19T10:44:07;24.10;94.30
33574;DHT22;20085;50.832;4.392;2022-08-19T10:46:36;24.10;94.30
33574;DHT22;20085;50.832;4.392;2022-08-19T10:49:04;24.00;94.40
33574;DHT22;20085;50.832;4.392;2022-08-19T10:51:31;24.10;94.50
33574;DHT22;20085;50.832;4.392;2022-08-19T10:54:17;24.10;94.50
33574;DHT22;20085;50.832;4.392;2022-08-19T10:56:43;24.00;94.60
33574;DHT22;20085;50.832;4.392;2022-08-19T10:59:27;24.10;94.60
33574;DHT22;20085;50.832;4.392;2022-08-19T11:02:01;24.10;94.50
33574;DHT22;20085;50.832;4.392;2022-08-19T11:04:27;24.10;94.60
33574;DHT22;20085;50.832;4.392;2022-08-19T11:06:53;24.00;94.60
33574;DHT22;20085;50.832;4.392;2022-08-19T11:09:21;24.00;94.70
33574;DHT22;20085;50.832;4.392;2022-08-19T11:11:50;24.00;94.70
33574;DHT22;20085;50.832;4.392;2022-08-19T11:14:19;24.10;94.60
33574;DHT22;20085;50.832;4.392;2022-08-19T11:16:46;24.10;94.60
33574;DHT22;20085;50.832;4.392;2022-08-19T11:19:12;24.20;94.50
33574;DHT22;20085;50.832;4.392;2022-08-19T11:21:41;24.20;94.40
33574;DHT22;20085;50.832;4.392;2022-08-19T11:24:15;24.20;94.30
33574;DHT22;20085;50.832;4.392;2022-08-19T11:26:42;24.10;94.40
33574;DHT22;20085;50.832;4.392;2022-08-19T11:29:10;24.10;94.60
33574;DHT22;20085;50.832;4.392;2022-08-19T11:31:41;24.10;94.60
33574;DHT22;20085;50.832;4.392;2022-08-19T11:34:10;24.00;94.70
33574;DHT22;20085;50.832;4.392;2022-08-19T11:36:38;24.00;94.70
33574;DHT22;20085;50.832;4.392;2022-08-19T11:39:06;24.00;94.60
33574;DHT22;20085;50.832;4.392;2022-08-19T11:41:32;23.90;94.60
33574;DHT22;20085;50.832;4.392;2022-08-19T11:44:00;23.90;94.60
33574;DHT22;20085;50.832;4.392;2022-08-19T11:46:26;24.00;94.60
33574;DHT22;20085;50.832;4.392;2022-08-19T11:48:55;24.00;94.70
33574;DHT22;20085;50.832;4.392;2022-08-19T11:51:22;23.90;94.80
33574;DHT22;20085;50.832;4.392;2022-08-19T11:53:50;23.90;94.90
33574;DHT22;20085;50.832;4.392;2022-08-19T11:56:17;23.90;94.90
33574;DHT22;20085;50.832;4.392;2022-08-19T11:58:43;23.90;94.80
33574;DHT22;20085;50.832;4.392;2022-08-19T12:01:13;24.00;94.70
33574;DHT22;20085;50.832;4.392;2022-08-19T12:03:42;24.10;94.60
33574;DHT22;20085;50.832;4.392;2022-08-19T12:06:10;24.30;94.30
33574;DHT22;20085;50.832;4.392;2022-08-19T12:08:39;24.50;94.00
33574;DHT22;20085;50.832;4.392;2022-08-19T12:11:05;24.70;93.60
33574;DHT22;20085;50.832;4.392;2022-08-19T12:13:33;24.90;93.10
33574;DHT22;20085;50.832;4.392;2022-08-19T12:15:59;25.00;92.70
33574;DHT22;20085;50.832;4.392;2022-08-19T12:18:25;25.00;92.60
33574;DHT22;20085;50.832;4.392;2022-08-19T12:20:52;25.10;92.50
33574;DHT22;20085;50.832;4.392;2022-08-19T12:23:20;25.20;92.70
33574;DHT22;20085;50.832;4.392;2022-08-19T12:25:48;25.20;92.10
33574;DHT22;20085;50.832;4.392;2022-08-19T12:28:22;25.30;92.00
33574;DHT22;20085;50.832;4.392;2022-08-19T12:30:49;25.40;91.90
33574;DHT22;20085;50.832;4.392;2022-08-19T12:33:20;25.40;91.70
33574;DHT22;20085;50.832;4.392;2022-08-19T12:35:50;25.50;91.60
33574;DHT22;20085;50.832;4.392;2022-08-19T12:38:15;25.50;91.40
33574;DHT22;20085;50.832;4.392;2022-08-19T12:40:45;25.50;91.30
33574;DHT22;20085;50.832;4.392;2022-08-19T12:43:10;25.40;91.20
33574;DHT22;20085;50.832;4.392;2022-08-19T12:45:37;25.30;91.30
33574;DHT22;20085;50.832;4.392;2022-08-19T12:48:03;25.40;91.30
33574;DHT22;20085;50.832;4.392;2022-08-19T12:50:29;25.50;91.00
33574;DHT22;20085;50.832;4.392;2022-08-19T12:52:56;25.60;90.80
33574;DHT22;20085;50.832;4.392;2022-08-19T12:55:22;25.60;90.60
33574;DHT22;20085;50.832;4.392;2022-08-19T12:57:48;25.70;90.60
33574;DHT22;20085;50.832;4.392;2022-08-19T13:00:17;25.70;90.90
33574;DHT22;20085;50.832;4.392;2022-08-19T13:02:46;25.80;90.40
33574;DHT22;20085;50.832;4.392;2022-08-19T13:05:17;25.70;90.30
33574;DHT22;20085;50.832;4.392;2022-08-19T13:07:46;25.80;90.40
33574;DHT22;20085;50.832;4.392;2022-08-19T13:10:15;25.90;90.20
33574;DHT22;20085;50.832;4.392;2022-08-19T13:12:42;26.00;90.10
33574;DHT22;20085;50.832;4.392;2022-08-19T13:15:08;26.00;90.00
33574;DHT22;20085;50.832;4.392;2022-08-19T13:17:35;26.20;89.50
33574;DHT22;20085;50.832;4.392;2022-08-19T13:20:02;26.30;89.10
33574;DHT22;20085;50.832;4.392;2022-08-19T13:22:28;26.30;88.60
33574;DHT22;20085;50.832;4.392;2022-08-19T13:24:53;26.30;88.20
33574;DHT22;20085;50.832;4.392;2022-08-19T13:27:19;26.40;87.70
33574;DHT22;20085;50.832;4.392;2022-08-19T13:29:45;26.30;87.60
33574;DHT22;20085;50.832;4.392;2022-08-19T13:32:39;26.20;88.00
33574;DHT22;20085;50.832;4.392;2022-08-19T13:35:24;26.20;87.90
33574;DHT22;20085;50.832;4.392;2022-08-19T13:37:49;26.20;88.30
33574;DHT22;20085;50.832;4.392;2022-08-19T13:40:24;26.20;88.10
33574;DHT22;20085;50.832;4.392;2022-08-19T13:42:52;26.20;88.00
33574;DHT22;20085;50.832;4.392;2022-08-19T13:45:21;26.20;87.90
33574;DHT22;20085;50.832;4.392;2022-08-19T13:47:51;26.30;87.40
33574;DHT22;20085;50.832;4.392;2022-08-19T13:50:21;26.30;87.40
33574;DHT22;20085;50.832;4.392;2022-08-19T13:52:48;26.40;87.50
33574;DHT22;20085;50.832;4.392;2022-08-19T13:55:14;26.50;87.00
33574;DHT22;20085;50.832;4.392;2022-08-19T13:57:40;26.40;86.70
33574;DHT22;20085;50.832;4.392;2022-08-19T14:00:15;26.30;87.00
33574;DHT22;20085;50.832;4.392;2022-08-19T14:02:43;26.40;87.10
33574;DHT22;20085;50.832;4.392;2022-08-19T14:05:12;26.50;86.60
33574;DHT22;20085;50.832;4.392;2022-08-19T14:07:38;26.50;86.10
33574;DHT22;20085;50.832;4.392;2022-08-19T14:10:06;26.40;86.50
33574;DHT22;20085;50.832;4.392;2022-08-19T14:12:32;26.40;86.70
33574;DHT22;20085;50.832;4.392;2022-08-19T14:14:59;26.40;87.30
33574;DHT22;20085;50.832;4.392;2022-08-19T14:17:25;26.20;89.20
33574;DHT22;20085;50.832;4.392;2022-08-19T14:19:56;26.00;90.30
33574;DHT22;20085;50.832;4.392;2022-08-19T14:22:22;25.80;90.70
33574;DHT22;20085;50.832;4.392;2022-08-19T14:24:48;25.70;91.10
33574;DHT22;20085;50.832;4.392;2022-08-19T14:27:15;25.80;91.60
33574;DHT22;20085;50.832;4.392;2022-08-19T14:29:41;25.90;91.70
33574;DHT22;20085;50.832;4.392;2022-08-19T14:32:06;26.00;91.80
33574;DHT22;20085;50.832;4.392;2022-08-19T14:34:32;26.00;91.80
33574;DHT22;20085;50.832;4.392;2022-08-19T14:36:59;25.90;91.30
33574;DHT22;20085;50.832;4.392;2022-08-19T14:39:25;25.90;91.50
33574;DHT22;20085;50.832;4.392;2022-08-19T14:41:50;25.90;91.50
33574;DHT22;20085;50.832;4.392;2022-08-19T14:44:16;25.70;91.90
33574;DHT22;20085;50.832;4.392;2022-08-19T14:46:42;25.70;92.20
33574;DHT22;20085;50.832;4.392;2022-08-19T14:49:09;25.60;92.80
33574;DHT22;20085;50.832;4.392;2022-08-19T14:51:35;25.60;93.10
33574;DHT22;20085;50.832;4.392;2022-08-19T14:54:00;25.50;93.30
33574;DHT22;20085;50.832;4.392;2022-08-19T14:56:28;25.40;93.30
33574;DHT22;20085;50.832;4.392;2022-08-19T14:58:54;25.40;93.70
33574;DHT22;20085;50.832;4.392;2022-08-19T15:01:22;25.40;93.60
33574;DHT22;20085;50.832;4.392;2022-08-19T15:03:49;25.60;93.60
33574;DHT22;20085;50.832;4.392;2022-08-19T15:06:18;25.70;93.60
33574;DHT22;20085;50.832;4.392;2022-08-19T15:08:43;25.90;93.30
33574;DHT22;20085;50.832;4.392;2022-08-19T15:11:15;26.00;92.90
33574;DHT22;20085;50.832;4.392;2022-08-19T15:13:43;26.00;92.70
33574;DHT22;20085;50.832;4.392;2022-08-19T15:16:09;26.00;92.60
33574;DHT22;20085;50.832;4.392;2022-08-19T15:18:35;26.00;92.50
33574;DHT22;20085;50.832;4.392;2022-08-19T15:21:02;25.90;92.60
33574;DHT22;20085;50.832;4.392;2022-08-19T15:23:29;25.90;92.60
33574;DHT22;20085;50.832;4.392;2022-08-19T15:25:54;26.00;92.50
33574;DHT22;20085;50.832;4.392;2022-08-19T15:28:21;25.90;92.30
33574;DHT22;20085;50.832;4.392;2022-08-19T15:30:47;25.90;92.30
33574;DHT22;20085;50.832;4.392;2022-08-19T15:33:13;25.90;92.00
33574;DHT22;20085;50.832;4.392;2022-08-19T15:35:43;25.90;91.90
33574;DHT22;20085;50.832;4.392;2022-08-19T15:38:09;26.00;91.90
33574;DHT22;20085;50.832;4.392;2022-08-19T15:40:35;26.00;92.00
33574;DHT22;20085;50.832;4.392;2022-08-19T15:43:02;25.90;92.40